Time;durP1;ratioP1;P1;durP2;ratioP2;P2;SDS_P1;SDS_P2;PMS_P1;PMS_P2;Temp;Humidity;BMP_temperature;BMP_pressure;BME280_temperature;BME280_humidity;BME280_pressure;Samples;Min_cycle;Max_cycle;Signal;HPM_P1;HPM_P2
2022/05/29 00:01:12;;;;;;;;;;;;;;;11.34;49.87;100467.31;4982155;27;129385;-65
2022/05/29 00:03:38;;;;;;;;;;;;;;;11.30;50.13;100467.88;4990047;27;126995;-71
2022/05/29 00:06:05;;;;;;;;;;;;;;;11.28;49.71;100475.44;5002921;27;110991;-71
2022/05/29 00:08:32;;;;;;;;;;;;;;;11.23;49.85;100477.31;5000139;27;98478;-65
2022/05/29 00:10:58;;;;;;;;;;;;;;;11.18;50.28;100475.44;5001759;27;99191;-66
2022/05/29 00:13:24;;;;;;;;;;;;;;;11.13;49.76;100478.16;4997515;27;107389;-66
2022/05/29 00:15:50;;;;;;;;;;;;;;;11.07;49.94;100465.72;4983182;28;98025;-65
2022/05/29 00:18:16;;;;;;;;;;;;;;;11.01;50.28;100464.13;4985490;27;98247;-71
2022/05/29 00:20:42;;;;;;;;;;;;;;;10.96;49.82;100462.22;4979572;27;98322;-66
2022/05/29 00:23:08;;;;;;;;;;;;;;;10.92;50.32;100466.53;4963734;28;125937;-71
2022/05/29 00:25:34;;;;;;;;;;;;;;;10.89;50.22;100460.88;4982234;27;113817;-71
2022/05/29 00:28:00;;;;;;;;;;;;;;;10.87;50.17;100463.84;4981227;27;127561;-73
2022/05/29 00:30:25;;;;;;;;;;;;;;;10.86;50.68;100456.84;4993100;27;128747;-71
2022/05/29 00:32:51;;;;;;;;;;;;;;;10.85;50.83;100459.81;4999673;27;128484;-65
2022/05/29 00:35:17;;;;;;;;;;;;;;;10.80;50.45;100449.81;5001186;27;112455;-71
2022/05/29 00:37:43;;;;;;;;;;;;;;;10.77;51.00;100456.56;5001709;27;128723;-71
2022/05/29 00:40:13;;;;;;;;;;;;;;;10.77;50.61;100459.25;4999023;27;121629;-66
2022/05/29 00:42:39;;;;;;;;;;;;;;;10.76;50.56;100451.41;5001703;27;98443;-66
2022/05/29 00:45:06;;;;;;;;;;;;;;;10.76;50.60;100448.72;5000031;27;112155;-65
2022/05/29 00:47:32;;;;;;;;;;;;;;;10.75;50.61;100449.81;4971205;28;126459;-66
2022/05/29 00:49:59;;;;;;;;;;;;;;;10.73;50.89;100457.38;4986486;27;126126;-66
2022/05/29 00:52:28;;;;;;;;;;;;;;;10.67;50.64;100448.44;4983024;28;98625;-65
2022/05/29 00:54:58;;;;;;;;;;;;;;;10.61;50.97;100452.25;4999950;27;97862;-66
2022/05/29 00:57:29;;;;;;;;;;;;;;;10.55;50.88;100445.22;4999611;27;127624;-65
2022/05/29 00:59:56;;;;;;;;;;;;;;;10.50;50.83;100447.91;4991408;27;98553;-65
2022/05/29 01:02:22;;;;;;;;;;;;;;;10.45;50.94;100454.09;4983566;27;117335;-71
2022/05/29 01:04:47;;;;;;;;;;;;;;;10.42;51.07;100443.84;5003215;27;97871;-66
2022/05/29 01:07:14;;;;;;;;;;;;;;;10.39;51.17;100444.38;4996777;27;126871;-71
2022/05/29 01:09:41;;;;;;;;;;;;;;;10.35;51.38;100445.19;4989394;27;98787;-71
2022/05/29 01:12:20;;;;;;;;;;;;;;;10.32;51.17;100446.50;4963806;28;98261;-65
2022/05/29 01:15:08;;;;;;;;;;;;;;;10.29;51.03;100441.63;4959111;28;109810;-71
2022/05/29 01:17:42;;;;;;;;;;;;;;;10.27;51.27;100443.81;5000438;27;98348;-66
2022/05/29 01:20:37;;;;;;;;;;;;;;;10.23;51.00;100443.50;4988023;27;98774;-71
2022/05/29 01:23:42;;;;;;;;;;;;;;;10.17;51.05;100436.47;4993566;27;98979;-71
2022/05/29 01:26:24;;;;;;;;;;;;;;;10.13;51.61;100438.06;5001101;27;98181;-66
2022/05/29 01:28:56;;;;;;;;;;;;;;;10.11;51.51;100442.13;4998042;27;98592;-66
2022/05/29 01:31:32;;;;;;;;;;;;;;;10.09;51.03;100445.06;4971608;27;98906;-72
2022/05/29 01:34:18;;;;;;;;;;;;;;;10.08;51.17;100438.06;4980733;28;97823;-65
2022/05/29 01:37:22;;;;;;;;;;;;;;;10.09;51.09;100439.66;4981809;27;97830;-66
2022/05/29 01:39:50;;;;;;;;;;;;;;;10.07;51.27;100439.94;4995404;27;98717;-71
2022/05/29 01:42:22;;;;;;;;;;;;;;;10.07;51.43;100442.63;5000940;27;98416;-66
2022/05/29 01:44:59;;;;;;;;;;;;;;;10.06;51.38;100442.88;4961673;28;104090;-65
2022/05/29 01:47:28;;;;;;;;;;;;;;;10.03;51.62;100436.16;4971331;28;97739;-65
2022/05/29 01:49:59;;;;;;;;;;;;;;;10.02;52.02;100436.41;4978557;27;118233;-72
2022/05/29 01:52:28;;;;;;;;;;;;;;;10.01;51.81;100432.09;4982448;27;122531;-66
2022/05/29 01:54:57;;;;;;;;;;;;;;;10.00;51.54;100430.50;4982025;27;98019;-71
2022/05/29 01:57:36;;;;;;;;;;;;;;;9.98;51.49;100427.25;4963327;28;111534;-65
2022/05/29 02:00:19;;;;;;;;;;;;;;;9.95;51.29;100425.91;4981558;27;99369;-67
2022/05/29 02:03:01;;;;;;;;;;;;;;;9.94;51.49;100420.75;4980061;27;117893;-65
2022/05/29 02:05:29;;;;;;;;;;;;;;;9.93;51.46;100427.22;5002018;27;98248;-65
2022/05/29 02:08:00;;;;;;;;;;;;;;;9.89;51.93;100418.06;5001819;27;97739;-71
2022/05/29 02:10:38;;;;;;;;;;;;;;;9.89;52.05;100423.44;4968421;28;98802;-66
2022/05/29 02:13:18;;;;;;;;;;;;;;;9.89;51.76;100431.53;4962648;28;120705;-71
2022/05/29 02:15:55;;;;;;;;;;;;;;;9.88;52.08;100435.28;4979431;28;98176;-71
2022/05/29 02:18:35;;;;;;;;;;;;;;;9.86;51.74;100430.16;4985363;27;97765;-71
2022/05/29 02:21:04;;;;;;;;;;;;;;;9.85;51.73;100431.22;4965001;28;119593;-65
2022/05/29 02:23:36;;;;;;;;;;;;;;;9.83;51.79;100423.44;4978849;27;119921;-72
2022/05/29 02:26:02;;;;;;;;;;;;;;;9.82;52.05;100424.50;4991376;27;107380;-71
2022/05/29 02:28:33;;;;;;;;;;;;;;;9.78;51.98;100418.00;4999286;27;98089;-71
2022/05/29 02:31:11;;;;;;;;;;;;;;;9.76;52.27;100420.16;4994112;27;126947;-66
2022/05/29 02:33:57;;;;;;;;;;;;;;;9.71;52.13;100417.47;5000158;27;98021;-71
2022/05/29 02:36:36;;;;;;;;;;;;;;;9.68;51.90;100417.19;5001419;27;98042;-71
2022/05/29 02:39:21;;;;;;;;;;;;;;;9.65;52.04;100418.50;4994749;27;97989;-66
2022/05/29 02:42:14;;;;;;;;;;;;;;;9.62;52.53;100416.31;4999395;27;98216;-71
2022/05/29 02:44:47;;;;;;;;;;;;;;;9.62;52.00;100415.53;4977085;27;97966;-71
2022/05/29 02:47:26;;;;;;;;;;;;;;;9.58;52.52;100410.66;4984541;28;97919;-71
2022/05/29 02:49:58;;;;;;;;;;;;;;;9.56;52.71;100410.13;4972749;28;99865;-71
2022/05/29 02:52:24;;;;;;;;;;;;;;;9.56;52.40;100412.00;4961645;28;126141;-65
2022/05/29 02:54:51;;;;;;;;;;;;;;;9.55;52.47;100405.00;4979728;27;126787;-71
2022/05/29 02:57:17;;;;;;;;;;;;;;;9.54;52.23;100408.75;4984244;27;98039;-65
2022/05/29 02:59:49;;;;;;;;;;;;;;;9.52;51.98;100411.72;4983637;27;113645;-71
2022/05/29 03:02:37;;;;;;;;;;;;;;;9.51;52.95;100407.41;4982629;27;98311;-65
2022/05/29 03:05:13;;;;;;;;;;;;;;;9.48;52.11;100407.13;4984664;27;98924;-71
2022/05/29 03:08:02;;;;;;;;;;;;;;;9.47;52.98;100408.16;4982004;28;98512;-65
2022/05/29 03:10:53;;;;;;;;;;;;;;;9.46;52.18;100410.06;4982666;28;97918;-72
2022/05/29 03:13:27;;;;;;;;;;;;;;;9.46;52.45;100404.69;4965933;27;100613;-71
2022/05/29 03:15:55;;;;;;;;;;;;;;;9.46;52.43;100403.88;4981275;28;127190;-72
2022/05/29 03:18:31;;;;;;;;;;;;;;;9.46;52.35;100411.94;4989034;27;97980;-65
2022/05/29 03:21:21;;;;;;;;;;;;;;;9.45;52.21;100413.03;5002573;27;97807;-71
2022/05/29 03:23:55;;;;;;;;;;;;;;;9.45;52.42;100404.94;4997100;27;99237;-66
2022/05/29 03:26:30;;;;;;;;;;;;;;;9.44;52.34;100398.75;4980499;28;128652;-71
2022/05/29 03:29:03;;;;;;;;;;;;;;;9.44;52.20;100403.34;4983948;27;98010;-65
2022/05/29 03:31:29;;;;;;;;;;;;;;;9.44;52.34;100406.84;4986470;27;98567;-65
2022/05/29 03:33:55;;;;;;;;;;;;;;;9.45;52.74;100404.94;4971373;27;127876;-71
2022/05/29 03:36:23;;;;;;;;;;;;;;;9.43;53.03;100407.91;5000575;27;127084;-65
2022/05/29 03:38:49;;;;;;;;;;;;;;;9.44;52.92;100403.34;4999719;27;97823;-71
2022/05/29 03:41:44;;;;;;;;;;;;;;;9.45;52.37;100403.06;4983100;27;112281;-72
2022/05/29 03:44:11;;;;;;;;;;;;;;;9.46;52.44;100409.25;4986457;27;121435;-65
2022/05/29 03:46:39;;;;;;;;;;;;;;;9.44;52.85;100406.03;4998228;27;98854;-71
2022/05/29 03:49:06;;;;;;;;;;;;;;;9.42;52.66;100406.25;5000227;27;97932;-67
2022/05/29 03:51:32;;;;;;;;;;;;;;;9.40;52.51;100396.84;5004516;27;97942;-71
2022/05/29 03:54:00;;;;;;;;;;;;;;;9.38;53.23;100402.47;4994120;27;118050;-71
2022/05/29 03:56:26;;;;;;;;;;;;;;;9.37;53.26;100406.25;4983137;27;98874;-68
2022/05/29 03:58:52;;;;;;;;;;;;;;;9.38;53.37;100405.16;4982895;27;123816;-72
2022/05/29 04:01:18;;;;;;;;;;;;;;;9.40;52.73;100400.34;4982795;27;111357;-65
2022/05/29 04:03:43;;;;;;;;;;;;;;;9.42;53.08;100403.56;4986568;27;127320;-65
2022/05/29 04:06:09;;;;;;;;;;;;;;;9.44;52.80;100400.66;4988366;27;127221;-72
2022/05/29 04:14:05;;;;;;;;;;;;;;;9.59;53.07;100404.22;4990386;27;98282;-71
2022/05/29 04:16:31;;;;;;;;;;;;;;;9.66;53.13;100403.16;4982848;27;98268;-72
2022/05/29 04:18:57;;;;;;;;;;;;;;;9.71;52.64;100398.63;5002852;27;122875;-66
2022/05/29 04:21:23;;;;;;;;;;;;;;;9.77;53.39;100394.84;5002692;27;111913;-65
2022/05/29 04:23:49;;;;;;;;;;;;;;;9.83;52.62;100393.81;5002679;27;120082;-65
2022/05/29 04:26:15;;;;;;;;;;;;;;;9.91;52.88;100400.56;5001393;27;98410;-66
2022/05/29 04:28:42;;;;;;;;;;;;;;;9.99;53.26;100399.25;5001721;27;124312;-71
2022/05/29 04:31:08;;;;;;;;;;;;;;;10.05;52.97;100403.56;5000451;27;105125;-72
2022/05/29 04:33:34;;;;;;;;;;;;;;;10.12;53.08;100398.75;4982404;27;122513;-72
2022/05/29 04:36:00;;;;;;;;;;;;;;;10.19;52.87;100402.00;5001490;27;127856;-71
2022/05/29 04:38:27;;;;;;;;;;;;;;;10.25;52.97;100394.75;4998878;27;127770;-65
2022/05/29 04:40:53;;;;;;;;;;;;;;;10.31;52.97;100396.41;4965259;28;98247;-71
2022/05/29 04:43:19;;;;;;;;;;;;;;;10.36;52.23;100392.91;4982455;27;111691;-72
2022/05/29 04:45:45;;;;;;;;;;;;;;;10.43;53.03;100396.94;4982731;28;98608;-65
2022/05/29 04:48:12;;;;;;;;;;;;;;;10.49;53.11;100400.44;4963701;28;118410;-71
2022/05/29 04:50:38;;;;;;;;;;;;;;;10.57;52.69;100391.81;4980634;28;98037;-72
2022/05/29 04:53:05;;;;;;;;;;;;;;;10.68;52.80;100395.34;4981789;27;128341;-66
2022/05/29 04:55:31;;;;;;;;;;;;;;;10.78;52.47;100392.66;4981973;27;98789;-71
2022/05/29 04:57:57;;;;;;;;;;;;;;;10.88;52.52;100383.75;4986559;27;111948;-71
2022/05/29 05:00:23;;;;;;;;;;;;;;;11.01;52.14;100380.50;4983259;27;98344;-66
2022/05/29 05:02:48;;;;;;;;;;;;;;;11.19;52.31;100382.63;4981588;27;110346;-69
2022/05/29 05:05:15;;;;;;;;;;;;;;;11.38;52.09;100377.44;4981061;27;128149;-65
2022/05/29 05:07:41;;;;;;;;;;;;;;;11.58;51.48;100371.16;4986417;27;98638;-65
2022/05/29 05:10:11;;;;;;;;;;;;;;;11.78;51.47;100378.38;5001525;27;112466;-65
2022/05/29 05:12:37;;;;;;;;;;;;;;;11.96;51.24;100372.38;5000286;27;98895;-65
2022/05/29 05:15:03;;;;;;;;;;;;;;;12.16;51.06;100367.94;5001041;27;124810;-65
2022/05/29 05:17:30;;;;;;;;;;;;;;;12.36;50.69;100373.22;4999021;27;125594;-65
2022/05/29 05:19:56;;;;;;;;;;;;;;;12.58;50.55;100371.97;4980549;27;105876;-65
2022/05/29 05:22:22;;;;;;;;;;;;;;;12.77;49.82;100368.31;4979526;28;128840;-70
2022/05/29 05:24:48;;;;;;;;;;;;;;;12.96;49.74;100373.78;4982106;27;128120;-72
2022/05/29 05:27:14;;;;;;;;;;;;;;;13.18;49.61;100367.09;4983768;27;98569;-71
2022/05/29 05:29:40;;;;;;;;;;;;;;;13.38;49.50;100364.19;5001122;27;113302;-71
2022/05/29 05:32:07;;;;;;;;;;;;;;;13.59;49.09;100362.03;5000657;27;126003;-72
2022/05/29 05:34:33;;;;;;;;;;;;;;;13.83;48.67;100358.50;4998449;27;106806;-66
2022/05/29 05:36:58;;;;;;;;;;;;;;;14.05;48.30;100358.72;4979231;27;98048;-66
2022/05/29 05:39:24;;;;;;;;;;;;;;;14.28;47.98;100359.75;4977234;27;112269;-66
2022/05/29 05:41:50;;;;;;;;;;;;;;;14.55;48.02;100350.97;4977442;27;98529;-66
2022/05/29 05:44:16;;;;;;;;;;;;;;;14.84;47.27;100356.16;4978495;27;124408;-71
2022/05/29 05:46:47;;;;;;;;;;;;;;;15.18;46.83;100355.00;4977907;28;98786;-67
2022/05/29 05:49:14;;;;;;;;;;;;;;;15.63;46.45;100361.44;4980023;27;98083;-66
2022/05/29 05:51:40;;;;;;;;;;;;;;;17.70;43.31;100351.47;4976168;28;123203;-66
2022/05/29 05:54:06;;;;;;;;;;;;;;;18.30;43.00;100358.91;4978010;27;98795;-71
2022/05/29 05:56:32;;;;;;;;;;;;;;;20.53;40.12;100362.91;4977203;28;97983;-65
2022/05/29 05:58:58;;;;;;;;;;;;;;;23.21;36.33;100349.13;4979491;27;112816;-72
2022/05/29 06:01:24;;;;;;;;;;;;;;;24.71;34.63;100360.69;4982615;27;128490;-71
2022/05/29 06:03:50;;;;;;;;;;;;;;;25.54;34.08;100360.13;4980967;27;127255;-66
2022/05/29 06:06:16;;;;;;;;;;;;;;;24.78;35.11;100373.00;4976678;27;127447;-70
2022/05/29 06:08:42;;;;;;;;;;;;;;;24.88;35.54;100372.41;4978508;27;112764;-66
2022/05/29 06:11:07;;;;;;;;;;;;;;;26.51;33.49;100367.00;4965839;28;98553;-72
2022/05/29 06:13:33;;;;;;;;;;;;;;;27.04;32.31;100372.25;4962599;27;127649;-66
2022/05/29 06:16:03;;;;;;;;;;;;;;;27.77;31.18;100364.19;4975545;27;99665;-71
2022/05/29 06:18:29;;;;;;;;;;;;;;;27.36;31.66;100367.84;4961933;28;97784;-66
2022/05/29 06:21:00;;;;;;;;;;;;;;;28.81;29.52;100368.97;4982920;27;128788;-66
2022/05/29 06:23:26;;;;;;;;;;;;;;;28.24;30.05;100367.97;4986747;27;98459;-72
2022/05/29 06:25:52;;;;;;;;;;;;;;;28.51;29.76;100363.75;4980443;27;98440;-72
2022/05/29 06:28:18;;;;;;;;;;;;;;;27.12;30.72;100366.47;4983024;27;112526;-72
2022/05/29 06:30:44;;;;;;;;;;;;;;;26.29;31.39;100366.72;4981262;27;128629;-72
2022/05/29 06:33:11;;;;;;;;;;;;;;;25.52;31.82;100358.94;4963741;27;99899;-72
2022/05/29 06:35:37;;;;;;;;;;;;;;;25.49;31.54;100357.69;4985310;27;98154;-72
2022/05/29 06:38:03;;;;;;;;;;;;;;;25.87;31.18;100347.63;4984991;27;99167;-72
2022/05/29 06:40:29;;;;;;;;;;;;;;;26.04;31.17;100347.06;4983376;27;127499;-66
2022/05/29 06:42:55;;;;;;;;;;;;;;;26.45;31.21;100347.22;4977468;28;98618;-73
2022/05/29 06:45:21;;;;;;;;;;;;;;;26.44;31.09;100343.59;4979383;27;98097;-66
2022/05/29 06:47:47;;;;;;;;;;;;;;;26.52;30.85;100352.78;4979211;27;112419;-66
2022/05/29 06:50:13;;;;;;;;;;;;;;;26.55;30.50;100343.75;4977658;28;129078;-66
2022/05/29 06:52:39;;;;;;;;;;;;;;;26.55;30.66;100348.47;4979350;28;110574;-72
2022/05/29 06:55:05;;;;;;;;;;;;;;;26.47;30.66;100355.09;4979537;27;98446;-72
2022/05/29 06:57:40;;;;;;;;;;;;;;;26.42;30.85;100354.25;4979506;27;106066;-73
2022/05/29 07:08:27;;;;;;;;;;;;;;;25.79;31.05;100352.25;4977819;27;97891;-70
2022/05/29 07:10:54;;;;;;;;;;;;;;;25.98;30.84;100345.81;4979430;28;123342;-71
2022/05/29 07:13:20;;;;;;;;;;;;;;;26.55;30.25;100345.72;4980459;27;99072;-70
2022/05/29 07:15:46;;;;;;;;;;;;;;;26.89;30.14;100343.69;4978041;27;98548;-69
2022/05/29 07:18:13;;;;;;;;;;;;;;;25.97;30.53;100337.88;4978877;27;111025;-71
2022/05/29 07:20:38;;;;;;;;;;;;;;;25.62;31.14;100342.53;4979754;27;98422;-64
2022/05/29 07:23:04;;;;;;;;;;;;;;;26.38;30.39;100347.09;4979669;27;98713;-71
2022/05/29 07:25:30;;;;;;;;;;;;;;;25.99;30.59;100350.16;4977672;28;98381;-72
2022/05/29 07:27:57;;;;;;;;;;;;;;;25.26;31.31;100349.44;4984955;27;112615;-64
2022/05/29 07:30:23;;;;;;;;;;;;;;;24.50;31.76;100346.50;4979030;27;99081;-65
2022/05/29 07:32:48;;;;;;;;;;;;;;;23.91;32.23;100347.63;4986278;27;98056;-65
2022/05/29 07:35:16;;;;;;;;;;;;;;;23.51;32.92;100348.69;4976250;28;127149;-71
2022/05/29 07:37:42;;;;;;;;;;;;;;;23.33;33.06;100353.75;4977956;27;98158;-65
2022/05/29 07:40:09;;;;;;;;;;;;;;;23.69;32.70;100354.59;4973134;28;127554;-64
2022/05/29 07:45:20;;;;;;;;;;;;;;;23.17;33.28;100345.50;4979561;28;97985;-70
2022/05/29 07:47:46;;;;;;;;;;;;;;;22.90;33.64;100349.88;4979953;27;112210;-64
2022/05/29 07:50:18;;;;;;;;;;;;;;;22.60;34.03;100343.19;4982583;27;98567;-65
2022/05/29 07:52:45;;;;;;;;;;;;;;;22.32;34.26;100345.94;4980058;27;98650;-71
2022/05/29 07:55:11;;;;;;;;;;;;;;;22.00;34.40;100356.75;4979196;27;97930;-65
2022/05/29 07:57:36;;;;;;;;;;;;;;;21.68;34.77;100355.81;4981318;28;98162;-64
2022/05/29 08:00:05;;;;;;;;;;;;;;;21.38;35.15;100367.03;4978262;28;127882;-71
2022/05/29 08:02:34;;;;;;;;;;;;;;;21.14;35.91;100364.22;4979068;27;98329;-71
2022/05/29 08:05:01;;;;;;;;;;;;;;;20.96;36.32;100369.91;4961561;27;98424;-71
2022/05/29 08:07:27;;;;;;;;;;;;;;;20.77;36.79;100375.91;4978452;28;98193;-65
2022/05/29 08:09:53;;;;;;;;;;;;;;;20.57;37.64;100374.00;4943315;28;122785;-65
2022/05/29 08:12:19;;;;;;;;;;;;;;;20.34;38.16;100371.59;4978318;27;128761;-65
2022/05/29 08:14:44;;;;;;;;;;;;;;;20.13;38.64;100372.75;4977355;27;125299;-65
2022/05/29 08:17:10;;;;;;;;;;;;;;;20.05;38.81;100385.34;4979171;27;112152;-72
2022/05/29 08:19:38;;;;;;;;;;;;;;;20.16;39.05;100378.34;4976501;28;127816;-72
2022/05/29 08:22:04;;;;;;;;;;;;;;;20.62;38.89;100375.72;4977395;27;99007;-71
2022/05/29 08:32:57;;;;;;;;;;;;;;;21.84;37.64;100366.88;4976738;28;98154;-71
2022/05/29 08:35:23;;;;;;;;;;;;;;;21.79;37.51;100367.91;4977926;27;125819;-71
2022/05/29 08:37:49;;;;;;;;;;;;;;;21.71;37.35;100369.63;4977098;28;111214;-72
2022/05/29 08:40:15;;;;;;;;;;;;;;;21.72;37.06;100367.69;4976844;28;98370;-71
2022/05/29 08:42:41;;;;;;;;;;;;;;;21.87;36.62;100361.50;4979024;27;127986;-65
2022/05/29 08:45:07;;;;;;;;;;;;;;;21.89;36.40;100358.38;4977401;27;128070;-65
2022/05/29 08:47:33;;;;;;;;;;;;;;;21.99;36.18;100360.66;4959822;28;111968;-65
2022/05/29 08:49:59;;;;;;;;;;;;;;;22.24;36.15;100359.50;4978520;28;98379;-64
2022/05/29 08:52:39;;;;;;;;;;;;;;;22.89;35.31;100358.50;4977718;28;129045;-72
2022/05/29 08:55:17;;;;;;;;;;;;;;;23.34;35.32;100352.56;4976909;27;98388;-64
2022/05/29 08:57:54;;;;;;;;;;;;;;;23.91;34.52;100351.19;4960639;28;105339;-71
2022/05/29 09:00:37;;;;;;;;;;;;;;;26.48;32.36;100348.41;4978093;28;98336;-65
2022/05/29 09:03:25;;;;;;;;;;;;;;;29.64;29.59;100346.81;4976344;28;99090;-65
2022/05/29 09:06:06;;;;;;;;;;;;;;;31.20;27.92;100355.56;4978654;27;97912;-71
2022/05/29 09:08:37;;;;;;;;;;;;;;;29.11;29.32;100351.97;4979144;27;99379;-71
2022/05/29 09:11:10;;;;;;;;;;;;;;;27.75;29.96;100350.75;4976522;28;98485;-65
2022/05/29 09:13:42;;;;;;;;;;;;;;;26.57;30.19;100346.94;4975300;27;126146;-65
2022/05/29 09:16:13;;;;;;;;;;;;;;;25.60;31.40;100344.06;4972232;28;125059;-65
2022/05/29 09:18:41;;;;;;;;;;;;;;;24.79;31.91;100330.50;4961343;28;98328;-70
2022/05/29 09:21:18;;;;;;;;;;;;;;;25.01;31.37;100326.16;4976885;27;98838;-65
2022/05/29 09:23:57;;;;;;;;;;;;;;;27.23;29.28;100325.03;4976295;27;98722;-65
2022/05/29 09:26:23;;;;;;;;;;;;;;;28.95;28.21;100317.47;4976059;27;98300;-65
2022/05/29 09:28:49;;;;;;;;;;;;;;;30.22;27.61;100312.09;4975611;28;112416;-65
2022/05/29 09:31:20;;;;;;;;;;;;;;;29.41;27.09;100311.94;4977678;28;127630;-65
2022/05/29 09:33:46;;;;;;;;;;;;;;;29.73;26.45;100311.09;4978319;27;98943;-71
2022/05/29 09:36:37;;;;;;;;;;;;;;;28.79;27.02;100290.13;4977411;27;98760;-71
2022/05/29 09:39:35;;;;;;;;;;;;;;;27.74;28.00;100298.50;4979729;27;98327;-66
2022/05/29 09:42:18;;;;;;;;;;;;;;;26.82;28.55;100291.09;4977780;27;98903;-65
2022/05/29 09:45:22;;;;;;;;;;;;;;;26.14;29.09;100287.63;4978345;27;98375;-65
2022/05/29 09:50:54;;;;;;;;;;;;;;;25.16;30.25;100286.66;4977545;28;99728;-71
2022/05/29 09:53:27;;;;;;;;;;;;;;;24.83;30.63;100285.28;4980888;27;125922;-65
2022/05/29 09:56:04;;;;;;;;;;;;;;;24.63;30.68;100284.56;4974855;27;124214;-65
2022/05/29 09:58:52;;;;;;;;;;;;;;;24.48;30.73;100279.94;4976699;27;98462;-71
2022/05/29 10:01:33;;;;;;;;;;;;;;;24.42;30.54;100273.16;4961540;28;109015;-65
2022/05/29 10:03:59;;;;;;;;;;;;;;;24.61;30.50;100272.34;4960727;28;98595;-64
2022/05/29 10:06:33;;;;;;;;;;;;;;;25.73;29.68;100272.88;4977399;28;99407;-65
2022/05/29 10:09:07;;;;;;;;;;;;;;;26.12;29.85;100265.91;4975764;28;112945;-71
2022/05/29 10:11:33;;;;;;;;;;;;;;;26.28;29.54;100267.66;4978129;27;97889;-71
2022/05/29 10:14:01;;;;;;;;;;;;;;;26.79;29.30;100269.75;4976798;27;127913;-71
2022/05/29 10:16:35;;;;;;;;;;;;;;;27.15;28.94;100274.41;4976265;28;98490;-66
2022/05/29 10:19:02;;;;;;;;;;;;;;;26.34;29.56;100278.00;4977591;27;104794;-71
2022/05/29 10:21:30;;;;;;;;;;;;;;;25.68;29.99;100274.81;4978051;27;97967;-66
2022/05/29 10:24:20;;;;;;;;;;;;;;;25.04;30.30;100276.59;4959947;28;98826;-65
2022/05/29 10:26:51;;;;;;;;;;;;;;;24.49;30.96;100279.59;4965603;28;98080;-71
2022/05/29 10:29:18;;;;;;;;;;;;;;;24.13;30.98;100280.03;4958481;28;97914;-66
2022/05/29 10:31:45;;;;;;;;;;;;;;;23.96;31.48;100279.31;4976602;28;98142;-65
2022/05/29 10:34:12;;;;;;;;;;;;;;;23.90;31.53;100274.50;4941352;28;131007;-65
2022/05/29 10:36:39;;;;;;;;;;;;;;;23.91;31.65;100279.63;4974986;28;98295;-72
2022/05/29 10:39:24;;;;;;;;;;;;;;;24.02;31.17;100274.34;4975439;28;98149;-71
2022/05/29 10:41:50;;;;;;;;;;;;;;;25.57;29.90;100270.31;4977644;27;97945;-72
2022/05/29 10:44:44;;;;;;;;;;;;;;;27.13;28.76;100271.25;4975218;27;98259;-71
2022/05/29 10:47:30;;;;;;;;;;;;;;;27.10;29.01;100271.19;4976816;27;115067;-65
2022/05/29 10:50:04;;;;;;;;;;;;;;;26.76;28.89;100274.06;4976839;27;98367;-66
2022/05/29 10:52:49;;;;;;;;;;;;;;;26.52;28.85;100269.91;4977436;27;97973;-66
2022/05/29 10:55:35;;;;;;;;;;;;;;;28.17;27.63;100260.69;4975596;27;127326;-66
2022/05/29 10:58:07;;;;;;;;;;;;;;;28.24;27.19;100262.69;4975127;28;98855;-72
2022/05/29 11:00:51;;;;;;;;;;;;;;;28.94;26.59;100263.19;4975269;28;98194;-66
2022/05/29 11:03:41;;;;;;;;;;;;;;;28.11;27.27;100265.06;4978254;27;97837;-65
2022/05/29 11:06:19;;;;;;;;;;;;;;;28.46;27.23;100269.13;4975452;28;100688;-68
2022/05/29 11:09:00;;;;;;;;;;;;;;;30.94;25.17;100262.41;4980395;27;128036;-66
2022/05/29 11:11:49;;;;;;;;;;;;;;;31.35;25.13;100256.84;4986779;27;98452;-72
2022/05/29 11:14:43;;;;;;;;;;;;;;;33.62;23.43;100272.63;4979531;27;99395;-71
2022/05/29 11:17:39;;;;;;;;;;;;;;;34.93;22.56;100265.28;4980194;27;99500;-66
2022/05/29 11:20:18;;;;;;;;;;;;;;;34.78;22.32;100258.47;4963397;28;127297;-71
2022/05/29 11:23:17;;;;;;;;;;;;;;;35.15;22.30;100265.53;4961952;28;98572;-65
2022/05/29 11:25:45;;;;;;;;;;;;;;;35.49;21.82;100253.84;4980483;27;99419;-65
2022/05/29 11:28:25;;;;;;;;;;;;;;;33.98;23.02;100249.53;4980948;27;99060;-65
2022/05/29 11:31:17;;;;;;;;;;;;;;;35.48;21.93;100249.41;4977402;27;122880;-72
2022/05/29 11:34:20;;;;;;;;;;;;;;;33.49;22.83;100243.75;4962232;27;99965;-71
2022/05/29 11:36:59;;;;;;;;;;;;;;;34.04;22.13;100240.22;4980055;28;97948;-71
2022/05/29 11:39:40;;;;;;;;;;;;;;;32.94;23.11;100237.56;4977860;28;98398;-66
2022/05/29 11:42:26;;;;;;;;;;;;;;;32.74;23.18;100231.91;4978581;28;98591;-66
2022/05/29 11:45:02;;;;;;;;;;;;;;;32.61;22.65;100234.50;4977357;27;97868;-66
2022/05/29 11:53:34;;;;;;;;;;;;;;;32.05;23.06;100211.84;4975216;27;98057;-66
2022/05/29 11:56:03;;;;;;;;;;;;;;;31.30;23.54;100201.63;4979211;28;98455;-66
2022/05/29 11:58:52;;;;;;;;;;;;;;;31.32;23.26;100193.63;4979490;28;110046;-71
2022/05/29 12:01:21;;;;;;;;;;;;;;;31.02;23.45;100203.47;4959224;27;98497;-66
2022/05/29 12:03:58;;;;;;;;;;;;;;;31.77;22.58;100199.84;4976770;27;127603;-72
2022/05/29 12:06:28;;;;;;;;;;;;;;;31.03;23.07;100193.94;4961029;28;104088;-66
2022/05/29 12:08:57;;;;;;;;;;;;;;;32.02;22.93;100190.38;4979706;28;98398;-66
2022/05/29 12:11:41;;;;;;;;;;;;;;;32.63;22.59;100181.88;4978673;27;103187;-72
2022/05/29 12:14:32;;;;;;;;;;;;;;;33.08;22.08;100178.69;4977540;27;98335;-72
2022/05/29 12:17:04;;;;;;;;;;;;;;;33.35;20.94;100178.56;4966891;28;117514;-72
2022/05/29 12:19:35;;;;;;;;;;;;;;;33.57;20.74;100175.38;4961115;28;113056;-66
2022/05/29 12:22:08;;;;;;;;;;;;;;;33.93;20.91;100167.75;4964888;27;118105;-72
2022/05/29 12:24:39;;;;;;;;;;;;;;;34.18;21.43;100166.41;4979051;27;98888;-72
2022/05/29 12:27:12;;;;;;;;;;;;;;;33.69;21.70;100158.72;4978517;27;126509;-72
2022/05/29 12:29:47;;;;;;;;;;;;;;;31.93;22.94;100151.91;4979660;27;98434;-71
2022/05/29 12:32:18;;;;;;;;;;;;;;;32.45;22.24;100162.66;4979754;27;98164;-72
2022/05/29 12:35:07;;;;;;;;;;;;;;;32.82;22.13;100157.25;4979062;27;98334;-66
2022/05/29 12:38:01;;;;;;;;;;;;;;;33.13;21.86;100147.50;4971438;27;98316;-72
2022/05/29 12:40:39;;;;;;;;;;;;;;;33.34;22.02;100139.91;4978872;28;98089;-66
2022/05/29 12:43:05;;;;;;;;;;;;;;;33.43;22.10;100142.91;4982531;27;99999;-66
2022/05/29 12:46:09;;;;;;;;;;;;;;;33.42;21.77;100133.75;4978859;27;98148;-72
2022/05/29 12:48:47;;;;;;;;;;;;;;;33.39;21.17;100142.19;4977025;28;98844;-66
2022/05/29 12:51:32;;;;;;;;;;;;;;;33.14;21.12;100148.28;4979421;27;97958;-66
2022/05/29 12:54:30;;;;;;;;;;;;;;;31.59;22.59;100146.38;4979630;27;99952;-66
2022/05/29 12:57:16;;;;;;;;;;;;;;;32.07;21.96;100136.97;4978758;27;99093;-71
2022/05/29 13:00:10;;;;;;;;;;;;;;;32.16;22.06;100142.78;4975618;28;127691;-67
2022/05/29 13:03:03;;;;;;;;;;;;;;;32.24;21.31;100138.69;4978146;28;97851;-66
2022/05/29 13:06:03;;;;;;;;;;;;;;;32.33;21.49;100128.97;4976610;28;98446;-72
2022/05/29 13:08:51;;;;;;;;;;;;;;;32.43;21.12;100136.41;4975497;27;98447;-71
2022/05/29 13:11:31;;;;;;;;;;;;;;;32.50;21.13;100128.72;4977345;28;99086;-72
2022/05/29 13:13:58;;;;;;;;;;;;;;;32.45;20.96;100118.03;4977555;27;98156;-71
2022/05/29 13:16:25;;;;;;;;;;;;;;;32.24;21.19;100126.75;4977224;27;122838;-66
2022/05/29 13:19:21;;;;;;;;;;;;;;;31.66;21.32;100120.44;4975173;28;122237;-66
2022/05/29 13:22:08;;;;;;;;;;;;;;;31.84;21.72;100118.19;4978834;27;98236;-72
2022/05/29 13:24:41;;;;;;;;;;;;;;;31.94;21.61;100120.03;4977181;27;98032;-66
2022/05/29 13:27:12;;;;;;;;;;;;;;;31.91;21.13;100128.44;4968704;27;125997;-72
2022/05/29 13:29:46;;;;;;;;;;;;;;;31.98;21.35;100117.19;4978014;27;98406;-66
2022/05/29 13:32:14;;;;;;;;;;;;;;;31.35;21.74;100117.66;4976675;28;98138;-67
2022/05/29 13:34:47;;;;;;;;;;;;;;;31.02;22.05;100111.66;4979132;27;98112;-72
2022/05/29 13:37:43;;;;;;;;;;;;;;;30.98;22.23;100112.91;4982230;27;98687;-66